Current Weather

Phoenix Sky Harbor Intl

Phoenix, Arizona (KPHX)

Report from: Friday, July 12, 2024 2:51 PM MST
Current time: Friday, July 12, 2024 3:52 PM MST

Nearby weather – Weather history – Daily summaries
Weather forecast

Temperature46.1°C (115.0°F)
Heat index43.5°C (110.4°F)
Dew point7.8°C (46.0°F)
Winds 8 kts (4.1 m/s, 9.2 mph) Vrb
Winds variableWinds variable from South-Southeast (160°) to Southwest (220°)
Visibility10 mi. (16.1 km)
Clouds Few clouds 10,000 ft. (3,048 m)
Few clouds 25,000 ft. (7,620 m)
Altimeter29.77 in.Hg (1008 mB)
Relative humidity10 %
Density altitude3,861 ft. (1,177 m)
Sea-level pressure100.6 kPa (1006 mB, 29.70 in.Hg)
Remarks Automated weather observing station with precipitation discriminator
Flight conditions Visual Meteorological Conditions
Raw dataKPHX 122151Z 20008KT 160V220 10SM FEW100 FEW250 46/08 A2977 RMK AO2 SLP056 T04610078
An unhandled exception has occurred. See browser dev tools for details. Reload 🗙